sensor_id;sensor_type;location;lat;lon;timestamp;pressure;altitude;pressure_sealevel;temperature;humidity
39309;BME280;26019;47.510;19.122;2023-09-07T00:05:48;100955.84;;;17.10;100.00
39309;BME280;26019;47.510;19.122;2023-09-07T00:15:50;100959.31;;;17.11;100.00
39309;BME280;26019;47.510;19.122;2023-09-07T00:25:52;100953.66;;;16.90;100.00
39309;BME280;26019;47.510;19.122;2023-09-07T00:35:54;100952.06;;;16.83;100.00
39309;BME280;26019;47.510;19.122;2023-09-07T00:45:57;100947.28;;;16.63;100.00
39309;BME280;26019;47.510;19.122;2023-09-07T00:56:01;100950.91;;;16.55;100.00
39309;BME280;26019;47.510;19.122;2023-09-07T01:16:13;100955.50;;;16.42;100.00
39309;BME280;26019;47.510;19.122;2023-09-07T01:26:15;100949.06;;;16.18;100.00
39309;BME280;26019;47.510;19.122;2023-09-07T01:36:17;100946.56;;;16.12;100.00
39309;BME280;26019;47.510;19.122;2023-09-07T01:46:18;100951.03;;;16.04;100.00
39309;BME280;26019;47.510;19.122;2023-09-07T01:56:21;100951.41;;;15.82;100.00
39309;BME280;26019;47.510;19.122;2023-09-07T02:06:23;100947.09;;;15.79;100.00
39309;BME280;26019;47.510;19.122;2023-09-07T02:16:25;100953.25;;;15.75;100.00
39309;BME280;26019;47.510;19.122;2023-09-07T02:26:26;100950.22;;;15.50;100.00
39309;BME280;26019;47.510;19.122;2023-09-07T02:36:29;100950.31;;;15.42;100.00
39309;BME280;26019;47.510;19.122;2023-09-07T02:46:31;100959.91;;;15.42;100.00
39309;BME280;26019;47.510;19.122;2023-09-07T02:56:33;100956.63;;;15.27;100.00
39309;BME280;26019;47.510;19.122;2023-09-07T03:06:35;100954.81;;;15.32;100.00
39309;BME280;26019;47.510;19.122;2023-09-07T03:16:37;100956.97;;;15.05;100.00
39309;BME280;26019;47.510;19.122;2023-09-07T03:26:41;100957.91;;;15.00;100.00
39309;BME280;26019;47.510;19.122;2023-09-07T03:36:44;100974.66;;;14.82;100.00
39309;BME280;26019;47.510;19.122;2023-09-07T03:46:46;100966.88;;;14.77;100.00
39309;BME280;26019;47.510;19.122;2023-09-07T03:56:49;100969.38;;;14.88;100.00
39309;BME280;26019;47.510;19.122;2023-09-07T04:06:50;100977.91;;;14.96;100.00
39309;BME280;26019;47.510;19.122;2023-09-07T04:16:52;100980.63;;;14.90;100.00
39309;BME280;26019;47.510;19.122;2023-09-07T04:26:58;100987.50;;;14.92;100.00
39309;BME280;26019;47.510;19.122;2023-09-07T04:37:01;100990.88;;;14.99;100.00
39309;BME280;26019;47.510;19.122;2023-09-07T04:47:12;100987.16;;;15.17;100.00
39309;BME280;26019;47.510;19.122;2023-09-07T04:57:17;100986.91;;;15.34;100.00
39309;BME280;26019;47.510;19.122;2023-09-07T05:07:21;100995.44;;;15.46;100.00
39309;BME280;26019;47.510;19.122;2023-09-07T05:17:24;100995.81;;;15.74;100.00
39309;BME280;26019;47.510;19.122;2023-09-07T05:27:26;101005.84;;;16.01;100.00
39309;BME280;26019;47.510;19.122;2023-09-07T05:37:28;101012.22;;;16.33;100.00
39309;BME280;26019;47.510;19.122;2023-09-07T05:47:33;101013.28;;;16.68;100.00
39309;BME280;26019;47.510;19.122;2023-09-07T05:57:36;101007.25;;;17.08;100.00
39309;BME280;26019;47.510;19.122;2023-09-07T06:07:38;101008.81;;;17.53;100.00
39309;BME280;26019;47.510;19.122;2023-09-07T06:17:44;101022.44;;;18.02;100.00
39309;BME280;26019;47.510;19.122;2023-09-07T06:27:47;101020.78;;;18.64;100.00
39309;BME280;26019;47.510;19.122;2023-09-07T06:37:49;101018.16;;;19.24;100.00
39309;BME280;26019;47.510;19.122;2023-09-07T06:47:51;101025.81;;;19.86;100.00
39309;BME280;26019;47.510;19.122;2023-09-07T06:57:53;101030.44;;;20.30;99.88
39309;BME280;26019;47.510;19.122;2023-09-07T07:07:55;101032.63;;;20.92;93.04
39309;BME280;26019;47.510;19.122;2023-09-07T07:17:57;101030.28;;;21.52;86.90
39309;BME280;26019;47.510;19.122;2023-09-07T07:28:00;101042.13;;;22.05;81.14
39309;BME280;26019;47.510;19.122;2023-09-07T07:38:03;101037.97;;;22.62;73.71
39309;BME280;26019;47.510;19.122;2023-09-07T07:48:05;101038.63;;;23.24;73.63
39309;BME280;26019;47.510;19.122;2023-09-07T07:58:11;101033.72;;;23.71;61.94
39309;BME280;26019;47.510;19.122;2023-09-07T08:08:13;101041.38;;;24.46;59.95
39309;BME280;26019;47.510;19.122;2023-09-07T08:18:15;101038.22;;;24.73;55.79
39309;BME280;26019;47.510;19.122;2023-09-07T08:28:17;101033.19;;;24.84;54.13
39309;BME280;26019;47.510;19.122;2023-09-07T08:38:20;101025.94;;;25.36;52.17
39309;BME280;26019;47.510;19.122;2023-09-07T08:48:27;101002.47;;;26.21;50.68
39309;BME280;26019;47.510;19.122;2023-09-07T08:58:31;101007.91;;;30.31;39.42
39309;BME280;26019;47.510;19.122;2023-09-07T09:28:56;100997.34;;;36.29;25.63
39309;BME280;26019;47.510;19.122;2023-09-07T09:38:59;101006.56;;;36.69;22.69
39309;BME280;26019;47.510;19.122;2023-09-07T09:49:01;100997.78;;;39.79;21.16
39309;BME280;26019;47.510;19.122;2023-09-07T09:59:03;100993.50;;;38.62;21.38
39309;BME280;26019;47.510;19.122;2023-09-07T10:09:06;100990.88;;;39.00;20.74
39309;BME280;26019;47.510;19.122;2023-09-07T10:29:23;100991.78;;;40.14;19.12
39309;BME280;26019;47.510;19.122;2023-09-07T10:39:30;100972.56;;;39.49;20.32
39309;BME280;26019;47.510;19.122;2023-09-07T10:49:32;100968.88;;;39.80;18.70
39309;BME280;26019;47.510;19.122;2023-09-07T10:59:36;100957.19;;;39.34;19.63
39309;BME280;26019;47.510;19.122;2023-09-07T11:09:41;100954.44;;;43.06;16.29
39309;BME280;26019;47.510;19.122;2023-09-07T11:19:43;100949.00;;;44.05;15.25
39309;BME280;26019;47.510;19.122;2023-09-07T11:29:52;100942.75;;;43.25;15.47
39309;BME280;26019;47.510;19.122;2023-09-07T11:39:54;100936.97;;;46.63;13.74
39309;BME280;26019;47.510;19.122;2023-09-07T11:49:56;100932.84;;;46.00;12.94
39309;BME280;26019;47.510;19.122;2023-09-07T12:00:00;100930.13;;;45.81;12.97
39309;BME280;26019;47.510;19.122;2023-09-07T12:10:02;100919.63;;;46.15;13.13
39309;BME280;26019;47.510;19.122;2023-09-07T12:20:04;100917.13;;;46.14;12.75
39309;BME280;26019;47.510;19.122;2023-09-07T12:30:11;100912.53;;;46.38;14.73
39309;BME280;26019;47.510;19.122;2023-09-07T12:40:14;100908.81;;;43.48;14.16
39309;BME280;26019;47.510;19.122;2023-09-07T12:50:16;100899.44;;;49.20;12.41
39309;BME280;26019;47.510;19.122;2023-09-07T13:00:18;100889.22;;;45.62;12.85
39309;BME280;26019;47.510;19.122;2023-09-07T13:10:21;100886.44;;;43.53;13.91
39309;BME280;26019;47.510;19.122;2023-09-07T13:20:23;100889.88;;;45.20;12.77
39309;BME280;26019;47.510;19.122;2023-09-07T13:30:40;100881.06;;;49.03;10.11
39309;BME280;26019;47.510;19.122;2023-09-07T13:40:43;100873.56;;;42.61;14.52
39309;BME280;26019;47.510;19.122;2023-09-07T13:50:44;100860.03;;;41.37;15.43
39309;BME280;26019;47.510;19.122;2023-09-07T14:00:46;100862.13;;;40.78;15.70
39309;BME280;26019;47.510;19.122;2023-09-07T14:10:51;100859.09;;;44.76;14.16
39309;BME280;26019;47.510;19.122;2023-09-07T14:20:53;100851.28;;;41.41;14.56
39309;BME280;26019;47.510;19.122;2023-09-07T14:30:59;100840.75;;;41.60;14.84
39309;BME280;26019;47.510;19.122;2023-09-07T14:41:04;100829.69;;;41.61;14.90
39309;BME280;26019;47.510;19.122;2023-09-07T14:51:07;100831.84;;;39.35;16.27
39309;BME280;26019;47.510;19.122;2023-09-07T15:01:10;100829.22;;;38.04;17.43
39309;BME280;26019;47.510;19.122;2023-09-07T15:11:13;100832.00;;;35.29;18.36
39309;BME280;26019;47.510;19.122;2023-09-07T15:21:15;100833.59;;;32.91;20.73
39309;BME280;26019;47.510;19.122;2023-09-07T15:31:19;100834.56;;;31.81;23.35
39309;BME280;26019;47.510;19.122;2023-09-07T15:41:21;100821.88;;;30.99;22.68
39309;BME280;26019;47.510;19.122;2023-09-07T15:51:24;100818.16;;;30.69;24.28
39309;BME280;26019;47.510;19.122;2023-09-07T16:01:26;100828.63;;;29.83;25.46
39309;BME280;26019;47.510;19.122;2023-09-07T16:11:28;100837.38;;;29.74;25.66
39309;BME280;26019;47.510;19.122;2023-09-07T16:21:31;100836.41;;;28.69;26.68
39309;BME280;26019;47.510;19.122;2023-09-07T16:31:35;100839.16;;;28.19;29.85
39309;BME280;26019;47.510;19.122;2023-09-07T16:41:41;100841.59;;;27.72;30.94
39309;BME280;26019;47.510;19.122;2023-09-07T16:51:43;100847.91;;;27.05;32.28
39309;BME280;26019;47.510;19.122;2023-09-07T17:01:47;100850.78;;;26.47;34.72
39309;BME280;26019;47.510;19.122;2023-09-07T17:11:51;100863.50;;;25.84;36.38
39309;BME280;26019;47.510;19.122;2023-09-07T17:21:55;100869.09;;;24.73;39.65
39309;BME280;26019;47.510;19.122;2023-09-07T17:31:57;100880.50;;;24.25;41.83
39309;BME280;26019;47.510;19.122;2023-09-07T17:42:02;100887.53;;;23.75;44.11
39309;BME280;26019;47.510;19.122;2023-09-07T17:52:06;100890.75;;;23.47;45.71
39309;BME280;26019;47.510;19.122;2023-09-07T18:02:25;100901.72;;;23.02;47.24
39309;BME280;26019;47.510;19.122;2023-09-07T18:12:32;100913.97;;;22.47;49.55
39309;BME280;26019;47.510;19.122;2023-09-07T18:22:35;100911.47;;;22.44;51.54
39309;BME280;26019;47.510;19.122;2023-09-07T18:32:38;100914.44;;;22.17;53.32
39309;BME280;26019;47.510;19.122;2023-09-07T18:42:41;100922.47;;;22.14;56.70
39309;BME280;26019;47.510;19.122;2023-09-07T18:52:44;100919.66;;;21.57;58.00
39309;BME280;26019;47.510;19.122;2023-09-07T19:02:49;100923.75;;;21.21;60.75
39309;BME280;26019;47.510;19.122;2023-09-07T19:12:51;100923.09;;;20.94;63.70
39309;BME280;26019;47.510;19.122;2023-09-07T19:22:54;100923.78;;;20.77;67.05
39309;BME280;26019;47.510;19.122;2023-09-07T19:32:58;100925.47;;;20.54;74.28
39309;BME280;26019;47.510;19.122;2023-09-07T19:43:01;100933.03;;;20.39;77.72
39309;BME280;26019;47.510;19.122;2023-09-07T19:53:06;100925.03;;;20.19;79.39
39309;BME280;26019;47.510;19.122;2023-09-07T20:03:09;100926.72;;;19.96;81.73
39309;BME280;26019;47.510;19.122;2023-09-07T20:13:13;100923.00;;;19.76;86.77
39309;BME280;26019;47.510;19.122;2023-09-07T20:23:18;100930.38;;;19.65;86.84
39309;BME280;26019;47.510;19.122;2023-09-07T20:33:20;100925.97;;;19.40;89.75
39309;BME280;26019;47.510;19.122;2023-09-07T20:43:22;100919.31;;;19.30;91.06
39309;BME280;26019;47.510;19.122;2023-09-07T20:53:25;100922.25;;;19.20;95.92
39309;BME280;26019;47.510;19.122;2023-09-07T21:03:27;100908.66;;;19.07;100.00
39309;BME280;26019;47.510;19.122;2023-09-07T21:13:29;100911.63;;;18.97;100.00
39309;BME280;26019;47.510;19.122;2023-09-07T21:23:31;100909.47;;;18.81;100.00
39309;BME280;26019;47.510;19.122;2023-09-07T21:33:33;100906.19;;;18.74;100.00
39309;BME280;26019;47.510;19.122;2023-09-07T21:43:36;100905.16;;;18.80;100.00
39309;BME280;26019;47.510;19.122;2023-09-07T21:53:39;100904.28;;;18.79;100.00
39309;BME280;26019;47.510;19.122;2023-09-07T22:03:41;100912.72;;;18.59;100.00
39309;BME280;26019;47.510;19.122;2023-09-07T22:13:44;100906.94;;;18.49;100.00
39309;BME280;26019;47.510;19.122;2023-09-07T22:23:46;100906.84;;;18.53;100.00
39309;BME280;26019;47.510;19.122;2023-09-07T22:33:47;100906.53;;;18.33;100.00
39309;BME280;26019;47.510;19.122;2023-09-07T22:43:52;100917.34;;;18.21;100.00
39309;BME280;26019;47.510;19.122;2023-09-07T22:53:54;100913.88;;;18.20;100.00
39309;BME280;26019;47.510;19.122;2023-09-07T23:03:57;100917.53;;;18.15;100.00
39309;BME280;26019;47.510;19.122;2023-09-07T23:13:59;100911.66;;;18.06;100.00
39309;BME280;26019;47.510;19.122;2023-09-07T23:24:01;100921.41;;;17.98;100.00
39309;BME280;26019;47.510;19.122;2023-09-07T23:34:05;100911.31;;;17.86;100.00
39309;BME280;26019;47.510;19.122;2023-09-07T23:44:08;100914.19;;;17.75;100.00
39309;BME280;26019;47.510;19.122;2023-09-07T23:54:10;100906.47;;;17.70;100.00
